Time;durP1;ratioP1;P1;durP2;ratioP2;P2;SDS_P1;SDS_P2;PMS_P1;PMS_P2;Temp;Humidity;BMP_temperature;BMP_pressure;BME280_temperature;BME280_humidity;BME280_pressure;Samples;Min_cycle;Max_cycle;Signal;HPM_P1;HPM_P2
2024/01/23 00:03:16;;;;;;;8.15;3.60;;;;;;;-7.04;91.58;102520.94;10256021;29;20500;-68
2024/01/23 00:08:17;;;;;;;7.72;3.33;;;;;;;-6.77;91.41;102535.53;10255969;29;20039;-68
2024/01/23 00:13:18;;;;;;;7.47;3.45;;;;;;;-6.59;91.43;102519.09;10254674;29;20058;-68
2024/01/23 00:18:18;;;;;;;7.88;3.45;;;;;;;-6.40;91.11;102531.97;10254468;29;20050;-68
2024/01/23 00:23:19;;;;;;;8.52;3.60;;;;;;;-6.64;90.57;102496.72;10255273;29;20049;-69
2024/01/23 00:28:20;;;;;;;5.80;2.95;;;;;;;-6.34;90.59;102521.59;10254908;29;20047;-68
2024/01/23 00:33:20;;;;;;;7.57;3.20;;;;;;;-6.61;90.17;102469.16;10253505;28;20576;-68
2024/01/23 00:38:21;;;;;;;7.47;3.65;;;;;;;-6.44;89.98;102493.19;10253537;29;20575;-68
2024/01/23 00:43:22;;;;;;;7.88;3.08;;;;;;;-6.50;88.91;102505.28;10253479;28;20055;-68
2024/01/23 00:48:23;;;;;;;6.60;3.53;;;;;;;-7.51;88.92;102385.00;10253193;29;20051;-68
2024/01/23 00:53:23;;;;;;;7.65;3.40;;;;;;;-7.09;88.67;102498.56;10253784;28;20050;-68
2024/01/23 00:58:24;;;;;;;7.10;3.45;;;;;;;-7.41;89.56;102442.66;10253110;28;20058;-68
2024/01/23 01:03:25;;;;;;;8.30;3.80;;;;;;;-7.05;89.65;102505.47;10253288;28;20043;-68
2024/01/23 01:08:26;;;;;;;7.50;3.97;;;;;;;-7.37;89.56;102434.03;10253597;28;20044;-68
2024/01/23 01:13:27;;;;;;;6.80;3.47;;;;;;;-7.02;89.38;102482.19;10252474;28;20091;-68
2024/01/23 01:18:27;;;;;;;7.13;3.20;;;;;;;-7.07;89.55;102465.84;10252109;28;20081;-68
2024/01/23 01:23:28;;;;;;;8.15;3.53;;;;;;;-7.08;89.24;102471.88;10251939;28;20118;-68
2024/01/23 01:28:29;;;;;;;7.15;3.28;;;;;;;-7.22;89.51;102435.72;10252317;29;20047;-68
2024/01/23 01:33:30;;;;;;;6.88;2.95;;;;;;;-6.96;89.78;102498.53;10252328;29;20114;-68
2024/01/23 01:38:30;;;;;;;7.22;3.50;;;;;;;-7.04;89.30;102500.25;10252109;29;20051;-68
2024/01/23 01:43:32;;;;;;;8.70;3.28;;;;;;;-7.31;89.60;102465.00;10247409;29;20093;-68
2024/01/23 01:48:32;;;;;;;6.72;3.50;;;;;;;-7.30;89.54;102491.69;10251434;28;20511;-68
2024/01/23 01:53:34;;;;;;;7.25;3.45;;;;;;;-7.56;89.43;102479.69;10251979;28;20046;-67
2024/01/23 01:58:36;;;;;;;9.52;3.72;;;;;;;-7.75;89.73;102478.78;10251846;28;20043;-68
2024/01/23 02:03:37;;;;;;;6.55;3.13;;;;;;;-7.94;89.80;102467.59;10251748;28;20078;-67
2024/01/23 02:08:39;;;;;;;23.00;8.65;;;;;;;-8.12;89.87;102468.44;10251932;28;20036;-68
2024/01/23 02:13:40;;;;;;;45.50;14.07;;;;;;;-8.30;90.45;102437.47;10251850;28;20036;-68
2024/01/23 02:18:41;;;;;;;11.60;4.82;;;;;;;-8.22;90.14;102460.69;10251415;28;20050;-68
2024/01/23 02:23:42;;;;;;;21.55;7.22;;;;;;;-8.44;90.51;102452.91;10249483;28;20392;-68
2024/01/23 02:28:43;;;;;;;14.45;7.28;;;;;;;-8.44;90.46;102463.22;10250523;29;20047;-68
2024/01/23 02:33:44;;;;;;;9.90;4.72;;;;;;;-8.75;90.92;102414.16;10250171;29;20488;-68
2024/01/23 02:38:44;;;;;;;10.80;4.88;;;;;;;-8.72;91.12;102444.22;10250409;29;20126;-68
2024/01/23 02:43:45;;;;;;;12.30;5.95;;;;;;;-8.73;90.49;102463.13;10251249;29;20118;-69
2024/01/23 02:48:46;;;;;;;11.00;5.50;;;;;;;-8.99;90.50;102457.84;10251424;29;20106;-68
2024/01/23 02:53:47;;;;;;;8.25;3.80;;;;;;;-9.10;90.75;102462.06;10250959;29;20047;-69
2024/01/23 02:58:48;;;;;;;10.43;4.30;;;;;;;-9.17;90.97;102463.75;10254782;28;20039;-68
2024/01/23 03:03:48;;;;;;;10.30;4.22;;;;;;;-9.44;90.87;102420.69;10252659;28;20050;-67
2024/01/23 03:08:51;;;;;;;12.77;4.22;;;;;;;-9.32;90.78;102464.50;10246807;28;20440;-67
2024/01/23 03:13:52;;;;;;;13.20;5.63;;;;;;;-9.32;90.82;102467.09;10257171;28;20051;-68
2024/01/23 03:18:52;;;;;;;10.65;4.65;;;;;;;-9.32;90.98;102453.34;10255955;29;20043;-69
2024/01/23 03:23:53;;;;;;;12.23;4.68;;;;;;;-9.37;90.50;102453.31;10256606;28;20062;-67
2024/01/23 03:28:54;;;;;;;11.00;3.80;;;;;;;-9.83;90.23;102449.53;10256260;28;20090;-68
2024/01/23 03:33:54;;;;;;;9.00;4.28;;;;;;;-10.35;90.29;102395.94;10270732;28;20043;-70
2024/01/23 03:38:55;;;;;;;10.57;3.92;;;;;;;-10.14;89.83;102444.97;10255890;29;20060;-67
2024/01/23 03:43:56;;;;;;;11.07;4.75;;;;;;;-10.22;90.90;102445.75;10256423;29;20051;-68
2024/01/23 03:48:57;;;;;;;9.07;4.07;;;;;;;-10.57;90.69;102388.03;10256118;29;20550;-67
2024/01/23 03:53:57;;;;;;;11.60;4.72;;;;;;;-10.29;90.68;102442.25;10255556;29;20039;-68
2024/01/23 03:58:58;;;;;;;9.05;3.70;;;;;;;-10.29;90.33;102433.69;10255359;29;20047;-67
2024/01/23 04:03:59;;;;;;;10.38;5.18;;;;;;;-10.14;90.74;102450.13;10256136;29;20133;-67
2024/01/23 04:09:00;;;;;;;10.93;4.18;;;;;;;-10.13;91.03;102438.97;10254632;28;20035;-67
2024/01/23 04:14:01;;;;;;;17.33;4.18;;;;;;;-10.26;90.20;102452.56;10255573;28;20081;-68
2024/01/23 04:19:02;;;;;;;7.50;3.70;;;;;;;-10.31;89.63;102456.81;10254769;28;20139;-67
2024/01/23 04:24:03;;;;;;;14.55;4.47;;;;;;;-10.36;90.14;102458.47;10254937;28;20043;-66
2024/01/23 04:29:04;;;;;;;7.80;3.47;;;;;;;-10.42;89.88;102471.25;10254302;28;20043;-65
2024/01/23 04:34:04;;;;;;;10.88;3.83;;;;;;;-10.52;90.01;102472.00;10250432;29;20039;-65
2024/01/23 04:39:05;;;;;;;13.65;3.67;;;;;;;-10.57;89.60;102467.66;10219919;28;20048;-68
2024/01/23 04:44:06;;;;;;;9.70;3.58;;;;;;;-10.81;89.63;102416.00;10213486;29;20051;-68
2024/01/23 04:49:07;;;;;;;9.13;3.30;;;;;;;-10.46;88.95;102465.22;10224741;29;20448;-67
2024/01/23 04:54:07;;;;;;;7.72;3.35;;;;;;;-10.43;89.02;102469.53;10252443;28;20055;-67
2024/01/23 04:59:08;;;;;;;8.25;3.20;;;;;;;-10.39;89.13;102463.59;10252984;28;20047;-68
2024/01/23 05:04:09;;;;;;;10.55;3.28;;;;;;;-10.23;89.00;102467.13;10252983;28;20411;-67
2024/01/23 05:09:09;;;;;;;8.13;3.03;;;;;;;-9.90;89.35;102474.31;10253238;29;20098;-67
2024/01/23 05:14:10;;;;;;;8.63;3.58;;;;;;;-9.65;88.76;102470.28;10253137;29;20067;-68
2024/01/23 05:19:11;;;;;;;5.10;2.83;;;;;;;-9.46;88.60;102473.84;10253088;28;20040;-68
2024/01/23 05:24:11;;;;;;;11.77;6.20;;;;;;;-9.30;87.77;102464.50;10253361;29;20054;-68
2024/01/23 05:29:12;;;;;;;8.73;3.75;;;;;;;-9.22;87.57;102465.41;10252112;29;20069;-68
2024/01/23 05:34:13;;;;;;;7.32;3.10;;;;;;;-9.31;86.83;102483.38;10252484;29;20456;-68
2024/01/23 05:39:14;;;;;;;8.68;3.50;;;;;;;-9.48;88.31;102473.84;10251554;29;20102;-68
2024/01/23 05:44:15;;;;;;;9.05;3.47;;;;;;;-9.32;87.75;102495.41;10252501;29;20066;-68
2024/01/23 05:49:16;;;;;;;11.35;3.47;;;;;;;-8.84;88.13;102499.13;10251450;29;20058;-68
2024/01/23 05:54:16;;;;;;;5.13;1.75;;;;;;;-9.03;85.71;102433.78;10251276;29;20063;-68
2024/01/23 05:59:18;;;;;;;6.28;3.15;;;;;;;-9.29;86.65;102451.66;10251896;28;20079;-68
2024/01/23 06:04:19;;;;;;;8.20;3.40;;;;;;;-9.06;87.28;102402.88;10251850;29;20075;-69
2024/01/23 06:09:19;;;;;;;8.45;3.70;;;;;;;-8.44;86.34;102442.59;10251761;29;20459;-68
2024/01/23 06:14:20;;;;;;;7.47;3.55;;;;;;;-7.91;86.46;102485.66;10251537;29;20070;-68
2024/01/23 06:19:22;;;;;;;20.67;7.68;;;;;;;-7.94;84.80;102425.47;10251006;29;20089;-68
2024/01/23 06:24:22;;;;;;;11.70;4.60;;;;;;;-7.62;84.82;102492.56;10250792;29;20047;-68
2024/01/23 06:29:23;;;;;;;9.88;3.45;;;;;;;-7.54;84.44;102482.25;10252109;28;20054;-67
2024/01/23 06:34:26;;;;;;;13.77;4.00;;;;;;;-7.09;83.87;102475.31;10256794;28;20047;-68
2024/01/23 06:39:27;;;;;;;7.80;2.80;;;;;;;-7.07;82.54;102435.69;10258814;29;20043;-67
2024/01/23 06:44:27;;;;;;;5.82;3.00;;;;;;;-6.86;83.17;102436.50;10258851;29;20055;-68
2024/01/23 06:49:28;;;;;;;4.95;2.58;;;;;;;-6.46;82.31;102483.72;10258482;29;20142;-67
2024/01/23 06:54:29;;;;;;;6.30;2.95;;;;;;;-6.91;81.14;102433.91;10257829;29;20049;-67
2024/01/23 06:59:30;;;;;;;6.72;3.03;;;;;;;-6.86;79.58;102421.00;10258069;29;20562;-68
2024/01/23 07:04:30;;;;;;;4.47;2.30;;;;;;;-6.77;79.20;102470.91;10257973;29;20175;-68
2024/01/23 07:09:31;;;;;;;7.38;2.97;;;;;;;-6.98;81.16;102414.16;10258005;29;20072;-67
2024/01/23 07:14:32;;;;;;;9.43;2.65;;;;;;;-6.78;79.24;102460.59;10257035;29;20105;-67
2024/01/23 07:19:32;;;;;;;7.18;3.15;;;;;;;-6.73;80.74;102456.25;10257109;29;20051;-67
2024/01/23 07:24:33;;;;;;;10.05;3.45;;;;;;;-6.82;80.73;102458.88;10256781;29;20047;-68
2024/01/23 07:29:35;;;;;;;8.60;3.45;;;;;;;-6.83;80.07;102441.66;10257430;29;20051;-68
2024/01/23 07:34:35;;;;;;;7.32;3.50;;;;;;;-6.84;80.80;102452.88;10257176;29;20050;-67
2024/01/23 07:39:36;;;;;;;7.03;3.53;;;;;;;-6.75;80.60;102455.41;10256587;29;20043;-68
2024/01/23 07:44:39;;;;;;;7.00;3.17;;;;;;;-6.66;80.23;102455.38;10255559;28;20359;-68
2024/01/23 07:49:40;;;;;;;9.43;3.53;;;;;;;-6.62;80.19;102451.03;10256522;29;20047;-68
2024/01/23 07:54:41;;;;;;;6.55;3.17;;;;;;;-6.52;80.36;102456.19;10257101;29;20407;-68
2024/01/23 07:59:42;;;;;;;6.32;3.53;;;;;;;-6.54;80.22;102413.94;10255938;29;20054;-68
2024/01/23 08:04:43;;;;;;;10.02;3.50;;;;;;;-6.34;80.07;102464.69;10255203;29;20518;-68
2024/01/23 08:09:44;;;;;;;6.13;3.47;;;;;;;-6.32;79.87;102469.00;10255850;29;20045;-68
2024/01/23 08:14:45;;;;;;;6.35;3.30;;;;;;;-6.29;79.86;102465.53;10255736;29;20065;-68
2024/01/23 08:19:45;;;;;;;7.03;3.47;;;;;;;-6.21;80.31;102448.25;10254410;29;20500;-68
2024/01/23 08:24:46;;;;;;;8.55;3.20;;;;;;;-6.04;79.52;102420.53;10255117;29;20043;-68
2024/01/23 08:29:47;;;;;;;10.30;3.65;;;;;;;-6.11;79.71;102390.38;10254747;29;20049;-68
2024/01/23 08:34:48;;;;;;;7.00;2.88;;;;;;;-5.77;79.10;102411.66;10254252;29;20039;-68
2024/01/23 08:39:48;;;;;;;5.97;2.97;;;;;;;-5.59;78.82;102430.50;10254758;29;20130;-68
2024/01/23 08:44:50;;;;;;;7.20;3.13;;;;;;;-5.55;78.31;102437.38;10254349;29;20059;-68
2024/01/23 08:49:51;;;;;;;5.75;2.90;;;;;;;-5.97;77.95;102380.78;10254044;29;20102;-68
2024/01/23 08:54:51;;;;;;;7.55;3.08;;;;;;;-5.71;78.41;102421.13;10253432;28;20109;-68
2024/01/23 08:59:52;;;;;;;6.50;3.38;;;;;;;-5.56;78.54;102409.78;10253690;29;20444;-68
2024/01/23 09:04:53;;;;;;;14.38;2.88;;;;;;;-5.44;78.16;102399.28;10252948;29;20047;-68
2024/01/23 09:09:54;;;;;;;7.85;3.00;;;;;;;-5.43;78.13;102410.50;10252854;29;20073;-68
2024/01/23 09:14:55;;;;;;;6.53;3.53;;;;;;;-5.39;77.74;102415.63;10252830;29;20039;-68
2024/01/23 09:19:55;;;;;;;7.55;3.47;;;;;;;-5.61;77.61;102358.00;10253238;29;20043;-68
2024/01/23 09:24:58;;;;;;;12.05;3.65;;;;;;;-5.40;78.12;102400.09;10252247;29;20085;-68
2024/01/23 09:29:59;;;;;;;7.05;2.80;;;;;;;-5.23;76.32;102405.97;10252790;28;20134;-68
2024/01/23 09:34:59;;;;;;;6.68;3.05;;;;;;;-5.87;77.72;102391.03;10251934;29;20122;-68
2024/01/23 09:40:00;;;;;;;8.25;4.78;;;;;;;-5.83;79.58;102398.78;10252688;29;20459;-68
2024/01/23 09:45:07;;;;;;;8.63;4.70;;;;;;;-5.37;79.59;102392.31;10252400;29;20526;-68
2024/01/23 09:50:12;;;;;;;9.20;4.75;;;;;;;-5.36;77.92;102387.09;10252652;29;20046;-68
2024/01/23 09:55:13;;;;;;;9.80;5.22;;;;;;;-5.47;78.72;102382.91;10250760;29;20051;-68
2024/01/23 10:00:14;;;;;;;12.18;6.03;;;;;;;-5.87;79.59;102327.19;10251254;28;20049;-68
2024/01/23 10:05:16;;;;;;;10.98;5.88;;;;;;;-5.23;79.86;102369.72;10252197;28;20047;-68
2024/01/23 10:10:17;;;;;;;10.60;5.78;;;;;;;-5.28;79.09;102361.13;10251409;29;20064;-68
2024/01/23 10:15:22;;;;;;;11.98;6.22;;;;;;;-5.27;79.67;102352.47;10251004;29;20484;-68
2024/01/23 10:20:23;;;;;;;8.80;4.80;;;;;;;-5.15;79.54;102354.91;10250737;28;20106;-68
2024/01/23 10:25:25;;;;;;;11.43;6.03;;;;;;;-5.65;79.53;102345.09;10250705;29;20084;-69
2024/01/23 10:30:26;;;;;;;12.00;6.03;;;;;;;-5.80;80.41;102354.75;10249652;29;20075;-68
2024/01/23 10:35:27;;;;;;;9.07;5.60;;;;;;;-5.20;80.97;102341.16;10251228;28;20090;-68
2024/01/23 10:40:28;;;;;;;9.82;5.32;;;;;;;-5.30;79.26;102337.81;10251135;29;20154;-68
2024/01/23 10:45:31;;;;;;;11.52;5.57;;;;;;;-5.75;80.35;102292.56;10251216;29;20071;-68
2024/01/23 10:50:34;;;;;;;9.82;5.35;;;;;;;-5.73;80.54;102329.66;10250727;29;20049;-68
2024/01/23 10:55:38;;;;;;;10.88;5.40;;;;;;;-5.76;80.77;102324.50;10250404;29;20503;-68
2024/01/23 11:00:39;;;;;;;10.13;5.50;;;;;;;-5.88;80.54;102332.41;10250165;29;20050;-68
2024/01/23 11:05:55;;;;;;;9.68;5.57;;;;;;;-6.08;82.10;102273.94;10250174;29;20131;-68
2024/01/23 11:11:04;;;;;;;8.90;5.45;;;;;;;-5.76;81.01;102319.34;10250205;29;20122;-68
2024/01/23 11:16:06;;;;;;;11.98;5.57;;;;;;;-5.80;81.15;102315.94;10250492;29;20043;-68
2024/01/23 11:21:10;;;;;;;9.93;5.85;;;;;;;-5.71;80.93;102321.84;10256393;28;20047;-69
2024/01/23 11:26:26;;;;;;;10.07;5.75;;;;;;;-5.88;82.26;102285.81;10256820;28;20047;-68
2024/01/23 11:31:28;;;;;;;11.00;5.95;;;;;;;-5.58;82.11;102318.28;10257568;29;20503;-68
2024/01/23 11:36:28;;;;;;;11.43;5.70;;;;;;;-5.57;81.89;102317.41;10256346;29;20093;-68
2024/01/23 11:41:30;;;;;;;12.43;5.72;;;;;;;-5.55;82.99;102321.69;10256534;29;20492;-68
2024/01/23 11:46:34;;;;;;;9.65;5.00;;;;;;;-5.84;82.49;102277.13;10256949;29;20091;-69
2024/01/23 11:51:37;;;;;;;10.43;6.43;;;;;;;-6.06;83.29;102286.88;10256063;29;20047;-68
2024/01/23 11:56:39;;;;;;;10.95;5.90;;;;;;;-6.07;84.98;102311.00;10256422;29;20042;-68
2024/01/23 12:01:42;;;;;;;11.35;5.90;;;;;;;-5.84;85.19;102310.78;10255357;29;20453;-68
2024/01/23 12:06:42;;;;;;;12.77;6.53;;;;;;;-6.12;85.40;102255.88;10255251;29;20094;-68
2024/01/23 12:11:44;;;;;;;12.55;6.30;;;;;;;-5.82;85.75;102311.63;10255607;29;20382;-69
2024/01/23 12:16:45;;;;;;;11.55;6.05;;;;;;;-5.93;86.88;102321.25;10254374;29;20408;-68
2024/01/23 12:21:46;;;;;;;15.05;7.15;;;;;;;-5.78;87.09;102313.31;10254631;28;20056;-68
2024/01/23 12:26:46;;;;;;;9.18;5.50;;;;;;;-5.78;87.27;102292.59;10254520;29;20388;-68
2024/01/23 12:31:47;;;;;;;9.32;5.38;;;;;;;-5.56;86.91;102301.88;10245469;28;20051;-69
2024/01/23 12:36:51;;;;;;;14.45;6.35;;;;;;;-5.62;87.72;102283.81;10249797;29;20431;-68
2024/01/23 12:41:52;;;;;;;10.82;5.40;;;;;;;-5.65;87.51;102294.19;10252609;29;20059;-68
2024/01/23 12:46:53;;;;;;;12.65;5.85;;;;;;;-5.61;88.07;102293.28;10251779;28;20452;-68
2024/01/23 12:51:53;;;;;;;10.70;5.78;;;;;;;-5.85;87.87;102275.44;10252006;29;20101;-68
2024/01/23 12:56:54;;;;;;;10.43;5.40;;;;;;;-5.79;88.37;102294.34;10251921;29;20047;-68
2024/01/23 13:01:55;;;;;;;9.25;4.70;;;;;;;-5.81;88.89;102295.22;10253783;28;20404;-68
2024/01/23 13:06:55;;;;;;;10.18;5.30;;;;;;;-5.98;88.84;102270.41;10252846;29;20047;-68
2024/01/23 13:11:56;;;;;;;7.43;4.18;;;;;;;-5.94;89.31;102294.53;10252749;29;20046;-68
2024/01/23 13:16:57;;;;;;;8.75;5.40;;;;;;;-6.21;89.63;102242.16;10252732;29;20039;-69
2024/01/23 13:21:58;;;;;;;8.13;4.82;;;;;;;-6.43;89.77;102205.31;10253318;29;20051;-68
2024/01/23 13:27:06;;;;;;;10.07;4.80;;;;;;;-5.95;90.31;102279.88;10246613;29;20408;-68
2024/01/23 13:32:09;;;;;;;8.77;4.97;;;;;;;-6.20;90.22;102253.34;10242731;28;20519;-69
2024/01/23 13:37:10;;;;;;;9.77;5.20;;;;;;;-6.15;90.57;102274.88;10253148;28;20045;-69
2024/01/23 13:42:11;;;;;;;11.38;4.70;;;;;;;-6.24;91.03;102278.41;10250580;28;20050;-69
2024/01/23 13:47:12;;;;;;;8.07;4.25;;;;;;;-6.41;90.88;102274.25;10251435;29;20050;-69
2024/01/23 13:52:12;;;;;;;9.02;4.40;;;;;;;-6.50;91.23;102277.75;10252062;29;20039;-69
2024/01/23 13:57:13;;;;;;;7.13;3.65;;;;;;;-6.53;91.28;102281.22;10251799;29;20046;-69
2024/01/23 14:02:17;;;;;;;11.18;4.22;;;;;;;-6.61;91.54;102267.50;10250896;29;20041;-69
2024/01/23 14:07:17;;;;;;;6.95;3.58;;;;;;;-6.97;91.27;102220.38;10251687;28;20085;-69
2024/01/23 14:12:18;;;;;;;8.38;4.22;;;;;;;-6.74;90.97;102277.06;10251004;29;20074;-69
2024/01/23 14:17:19;;;;;;;8.88;3.75;;;;;;;-7.13;91.18;102231.66;10251655;29;20047;-69
2024/01/23 14:22:20;;;;;;;7.00;4.03;;;;;;;-6.93;91.40;102283.22;10250465;29;20075;-69
2024/01/23 14:27:22;;;;;;;7.20;3.97;;;;;;;-6.99;90.85;102280.69;10251216;29;20511;-69
2024/01/23 14:32:23;;;;;;;10.25;4.88;;;;;;;-7.10;91.33;102262.63;10251135;29;20063;-69
2024/01/23 14:37:24;;;;;;;7.82;4.47;;;;;;;-7.18;91.04;102272.16;10249795;29;20102;-69
2024/01/23 14:42:25;;;;;;;10.60;4.15;;;;;;;-7.59;90.61;102224.16;10247572;28;20074;-69
2024/01/23 14:47:26;;;;;;;9.40;4.25;;;;;;;-7.59;90.92;102226.75;10250759;28;20141;-69
2024/01/23 14:52:27;;;;;;;9.00;4.47;;;;;;;-7.59;90.76;102242.22;10251845;28;20043;-69
2024/01/23 14:57:28;;;;;;;6.53;3.83;;;;;;;-7.57;90.79;102232.72;10257770;28;20039;-69
2024/01/23 15:02:29;;;;;;;9.88;4.97;;;;;;;-7.48;90.03;102279.16;10257873;28;20035;-69
2024/01/23 15:07:31;;;;;;;8.10;3.95;;;;;;;-7.51;90.00;102288.63;10258193;29;20042;-69
2024/01/23 15:12:31;;;;;;;9.23;4.13;;;;;;;-7.52;90.15;102282.63;10257927;28;20047;-69
2024/01/23 15:17:32;;;;;;;11.13;3.88;;;;;;;-7.60;89.78;102271.47;10258251;29;20404;-69
2024/01/23 15:22:33;;;;;;;8.90;3.80;;;;;;;-7.49;89.61;102292.94;10257084;29;20043;-69
2024/01/23 15:27:34;;;;;;;6.70;3.60;;;;;;;-7.99;89.12;102232.00;10257235;29;20094;-69
2024/01/23 15:32:35;;;;;;;6.57;3.30;;;;;;;-7.69;89.05;102293.00;10257010;29;20464;-69
2024/01/23 15:37:36;;;;;;;7.03;3.58;;;;;;;-7.85;89.73;102297.34;10256802;29;20090;-69
2024/01/23 15:42:37;;;;;;;6.53;3.00;;;;;;;-7.72;90.10;102290.41;10255956;29;20066;-69
2024/01/23 15:47:37;;;;;;;7.90;3.30;;;;;;;-7.94;89.76;102243.19;10256580;29;20047;-69
2024/01/23 15:52:38;;;;;;;6.22;3.10;;;;;;;-7.77;89.87;102275.84;10256738;28;20054;-69
2024/01/23 15:57:40;;;;;;;7.50;3.88;;;;;;;-7.82;89.24;102286.16;10256356;28;20048;-69
2024/01/23 16:02:41;;;;;;;4.47;2.90;;;;;;;-7.87;88.61;102288.72;10255339;28;20094;-69
2024/01/23 16:07:42;;;;;;;6.80;3.05;;;;;;;-8.00;89.24;102287.03;10254306;28;20389;-69
2024/01/23 16:12:43;;;;;;;6.43;3.22;;;;;;;-8.02;89.33;102277.59;10256111;28;20484;-69
2024/01/23 16:17:47;;;;;;;7.97;3.20;;;;;;;-7.91;89.26;102256.06;10255440;28;20190;-69
2024/01/23 16:22:49;;;;;;;7.32;2.78;;;;;;;-7.71;89.66;102280.97;10254245;29;20039;-69
2024/01/23 16:27:50;;;;;;;7.88;3.08;;;;;;;-7.76;88.98;102252.59;10255093;29;20420;-69
2024/01/23 16:33:09;;;;;;;6.90;3.22;;;;;;;-7.50;89.52;102268.00;10253467;29;20042;-69
2024/01/23 16:38:09;;;;;;;7.20;3.08;;;;;;;-8.19;89.42;102149.56;10253741;28;20043;-69
2024/01/23 16:43:11;;;;;;;7.00;3.38;;;;;;;-7.38;89.77;102261.94;10254236;29;20142;-69
2024/01/23 16:48:12;;;;;;;6.13;2.90;;;;;;;-7.34;89.44;102253.28;10253210;29;20518;-69
2024/01/23 16:53:13;;;;;;;7.13;3.20;;;;;;;-7.44;89.57;102249.91;10254034;28;20050;-69
2024/01/23 16:58:14;;;;;;;8.48;3.50;;;;;;;-7.42;89.29;102263.69;10253164;28;20047;-69
2024/01/23 17:03:14;;;;;;;7.53;3.30;;;;;;;-7.40;89.15;102254.19;10254091;28;20138;-69
2024/01/23 17:08:16;;;;;;;7.28;3.13;;;;;;;-7.48;88.82;102250.75;10253981;29;20133;-69
2024/01/23 17:13:17;;;;;;;6.47;2.75;;;;;;;-7.74;88.95;102211.31;10253323;29;20043;-69
2024/01/23 17:18:17;;;;;;;13.90;4.00;;;;;;;-7.41;88.86;102255.06;10252960;28;20047;-69
2024/01/23 17:23:18;;;;;;;11.73;3.50;;;;;;;-7.35;89.38;102246.44;10252370;28;20070;-69
2024/01/23 17:28:19;;;;;;;7.22;3.13;;;;;;;-7.30;89.36;102242.06;10251484;28;20051;-69
2024/01/23 17:33:20;;;;;;;8.00;3.25;;;;;;;-7.45;88.73;102230.13;10252430;28;20522;-69
2024/01/23 17:38:21;;;;;;;9.75;3.60;;;;;;;-7.88;88.39;102189.00;10251752;29;20531;-69
2024/01/23 17:43:22;;;;;;;7.32;3.88;;;;;;;-7.99;88.78;102190.75;10251079;28;20083;-69
2024/01/23 17:48:23;;;;;;;7.43;3.30;;;;;;;-7.78;88.74;102238.81;10251833;29;20046;-69
2024/01/23 17:53:24;;;;;;;7.18;2.97;;;;;;;-7.64;88.62;102242.22;10234672;29;20439;-69
2024/01/23 17:58:25;;;;;;;7.35;3.80;;;;;;;-7.46;89.14;102248.19;10252007;28;20051;-69
2024/01/23 18:03:26;;;;;;;5.85;3.10;;;;;;;-7.42;88.56;102229.22;10251333;29;20039;-69
2024/01/23 18:08:26;;;;;;;8.65;2.78;;;;;;;-7.50;88.31;102189.72;10251755;29;20053;-69
2024/01/23 18:13:30;;;;;;;6.38;3.10;;;;;;;-7.47;87.86;102175.06;10251641;29;20035;-69
2024/01/23 18:18:31;;;;;;;5.40;2.90;;;;;;;-7.11;88.23;102227.34;10250904;29;20056;-69
2024/01/23 18:23:31;;;;;;;4.07;2.22;;;;;;;-7.10;87.92;102223.91;10250447;29;20738;-69
2024/01/23 18:28:32;;;;;;;8.75;2.83;;;;;;;-7.12;88.30;102223.03;10254162;28;20142;-69
2024/01/23 18:33:33;;;;;;;7.18;3.10;;;;;;;-7.16;88.77;102214.47;10258844;29;20043;-69
2024/01/23 18:38:34;;;;;;;4.80;2.30;;;;;;;-7.09;88.75;102224.75;10258353;29;20039;-69
2024/01/23 18:43:35;;;;;;;6.28;2.72;;;;;;;-7.10;88.63;102223.03;10258199;29;20059;-69
2024/01/23 18:48:36;;;;;;;7.43;2.78;;;;;;;-7.25;88.58;102216.25;10257905;29;20059;-69
2024/01/23 18:53:37;;;;;;;5.43;2.85;;;;;;;-7.30;88.45;102211.09;10257048;28;20118;-69
2024/01/23 18:58:38;;;;;;;5.80;2.28;;;;;;;-7.37;89.01;102207.69;10256608;28;20114;-69
2024/01/23 19:03:39;;;;;;;4.88;2.38;;;;;;;-7.42;88.62;102218.91;10258322;28;20071;-69
2024/01/23 19:08:42;;;;;;;6.22;2.83;;;;;;;-8.23;88.60;102119.47;10257545;29;20074;-69
2024/01/23 19:13:43;;;;;;;7.50;3.03;;;;;;;-7.87;88.53;102219.06;10258098;29;20043;-69
2024/01/23 19:18:44;;;;;;;5.78;3.03;;;;;;;-7.83;89.13;102222.53;10257684;29;20047;-69
2024/01/23 19:23:45;;;;;;;5.65;3.05;;;;;;;-7.80;89.54;102207.03;10256657;29;20047;-69
2024/01/23 19:28:45;;;;;;;8.05;3.85;;;;;;;-7.73;89.98;102219.03;10256815;29;20039;-69
2024/01/23 19:33:50;;;;;;;10.63;4.72;;;;;;;-7.67;89.64;102210.41;10257633;29;20054;-69
2024/01/23 19:38:51;;;;;;;9.02;3.80;;;;;;;-7.66;90.13;102209.53;10256356;28;20051;-69
2024/01/23 19:43:53;;;;;;;6.60;3.00;;;;;;;-7.69;89.75;102219.88;10255459;29;20488;-69
2024/01/23 19:48:54;;;;;;;4.90;2.17;;;;;;;-7.75;90.98;102227.66;10256451;28;20044;-69
2024/01/23 19:53:55;;;;;;;7.80;2.55;;;;;;;-7.91;91.74;102219.97;10254782;28;20047;-69
2024/01/23 19:58:58;;;;;;;6.32;2.75;;;;;;;-7.77;93.23;102227.66;10256005;28;20043;-69
2024/01/23 20:03:59;;;;;;;4.95;2.45;;;;;;;-7.74;93.92;102196.69;10256106;28;20050;-69
2024/01/23 20:09:00;;;;;;;4.80;2.55;;;;;;;-7.62;93.95;102216.44;10255128;28;20134;-69
2024/01/23 20:14:01;;;;;;;5.00;2.25;;;;;;;-7.77;93.52;102231.97;10255072;29;20130;-69
2024/01/23 20:19:01;;;;;;;4.05;2.00;;;;;;;-7.97;94.61;102183.00;10255460;29;20042;-70
2024/01/23 20:24:02;;;;;;;4.00;1.75;;;;;;;-7.81;94.86;102210.47;10255361;29;20035;-69
2024/01/23 20:29:03;;;;;;;4.78;2.35;;;;;;;-7.88;94.08;102209.63;10255019;29;20042;-69
2024/01/23 20:34:04;;;;;;;5.63;2.30;;;;;;;-7.81;94.34;102207.88;10254734;29;20094;-69
2024/01/23 20:39:06;;;;;;;6.43;2.15;;;;;;;-7.78;94.84;102196.69;10254533;29;20602;-69
2024/01/23 20:44:08;;;;;;;5.30;2.42;;;;;;;-7.71;95.11;102199.25;10254505;29;20089;-69
2024/01/23 20:49:08;;;;;;;5.70;2.58;;;;;;;-7.70;95.43;102193.22;10253522;28;20047;-68
2024/01/23 20:54:10;;;;;;;5.20;2.35;;;;;;;-8.07;95.26;102131.47;10253090;29;20043;-69
2024/01/23 20:59:10;;;;;;;6.93;2.22;;;;;;;-7.67;95.38;102192.34;10253471;28;20047;-69
2024/01/23 21:04:11;;;;;;;4.07;2.00;;;;;;;-7.63;95.46;102187.19;10253257;28;20039;-68
2024/01/23 21:09:13;;;;;;;3.50;2.00;;;;;;;-7.56;96.40;102176.84;10252013;29;20043;-69
2024/01/23 21:14:14;;;;;;;5.95;2.40;;;;;;;-7.75;96.00;102153.66;10253536;28;20050;-69
2024/01/23 21:19:15;;;;;;;8.88;2.33;;;;;;;-7.48;95.89;102183.66;10252372;28;20046;-69
2024/01/23 21:24:16;;;;;;;3.78;1.85;;;;;;;-7.55;95.69;102163.91;10253453;29;20043;-69
2024/01/23 21:29:17;;;;;;;6.55;2.33;;;;;;;-7.38;96.34;102176.72;10253179;29;20039;-68
2024/01/23 21:34:18;;;;;;;6.70;2.28;;;;;;;-7.39;96.03;102167.25;10252768;29;20043;-68
2024/01/23 21:39:19;;;;;;;4.82;2.30;;;;;;;-7.26;96.00;102168.06;10252703;29;20039;-69
2024/01/23 21:44:19;;;;;;;6.18;1.98;;;;;;;-7.23;96.02;102162.88;10252511;29;20063;-69
2024/01/23 21:49:20;;;;;;;3.63;2.00;;;;;;;-7.17;95.54;102166.25;10252855;29;20055;-68
2024/01/23 21:54:21;;;;;;;11.98;2.42;;;;;;;-7.29;95.27;102147.41;10252028;29;20066;-69
2024/01/23 21:59:22;;;;;;;3.60;2.00;;;;;;;-7.16;95.67;102156.78;10252058;29;20058;-69
2024/01/23 22:04:22;;;;;;;5.93;2.25;;;;;;;-7.18;95.15;102150.75;10250699;29;20071;-69
2024/01/23 22:09:23;;;;;;;3.88;1.88;;;;;;;-7.25;94.85;102151.69;10250169;29;20051;-69
2024/01/23 22:14:24;;;;;;;3.58;2.00;;;;;;;-7.33;94.58;102143.97;10251105;28;20074;-69
2024/01/23 22:19:24;;;;;;;8.18;2.10;;;;;;;-7.42;94.77;102136.28;10251527;29;20047;-68
2024/01/23 22:24:25;;;;;;;6.13;2.22;;;;;;;-7.52;94.86;102109.69;10251594;29;20070;-69
2024/01/23 22:29:26;;;;;;;5.30;2.50;;;;;;;-7.32;94.68;102143.13;10250156;29;20051;-69
2024/01/23 22:34:26;;;;;;;4.90;2.20;;;;;;;-7.32;95.00;102137.13;10251271;28;20462;-68
2024/01/23 22:39:27;;;;;;;5.30;2.55;;;;;;;-7.74;94.50;102095.22;10250593;28;20051;-68
2024/01/23 22:44:28;;;;;;;4.78;2.03;;;;;;;-7.48;94.12;102141.50;10249881;29;20067;-68
2024/01/23 22:49:29;;;;;;;4.68;2.30;;;;;;;-7.45;94.58;102151.78;10251559;28;20054;-68
2024/01/23 22:54:29;;;;;;;4.38;2.30;;;;;;;-7.45;94.48;102138.91;10251020;29;20051;-68
2024/01/23 22:59:30;;;;;;;3.67;2.13;;;;;;;-7.80;94.23;102085.78;10250780;29;20051;-68